sensor_id;sensor_type;location;lat;lon;timestamp;pressure;altitude;pressure_sealevel;temperature;humidity
7768;BME280;3928;42.626;23.382;2023-03-14T00:02:20;94382.44;;;7.13;42.29
7768;BME280;3928;42.626;23.382;2023-03-14T00:04:47;94382.38;;;7.29;41.20
7768;BME280;3928;42.626;23.382;2023-03-14T00:07:15;94376.38;;;7.41;39.99
7768;BME280;3928;42.626;23.382;2023-03-14T00:09:42;94369.47;;;7.65;39.83
7768;BME280;3928;42.626;23.382;2023-03-14T00:12:09;94362.59;;;7.79;39.34
7768;BME280;3928;42.626;23.382;2023-03-14T00:14:36;94347.22;;;7.88;39.15
7768;BME280;3928;42.626;23.382;2023-03-14T00:17:02;94355.63;;;8.04;39.14
7768;BME280;3928;42.626;23.382;2023-03-14T00:19:29;94348.03;;;7.93;39.70
7768;BME280;3928;42.626;23.382;2023-03-14T00:21:56;94346.41;;;7.78;40.48
7768;BME280;3928;42.626;23.382;2023-03-14T00:24:24;94343.88;;;7.83;40.40
7768;BME280;3928;42.626;23.382;2023-03-14T00:26:51;94254.72;;;7.39;40.52
7768;BME280;3928;42.626;23.382;2023-03-14T00:29:17;94320.84;;;7.86;40.71
7768;BME280;3928;42.626;23.382;2023-03-14T00:31:44;94319.09;;;7.89;40.84
7768;BME280;3928;42.626;23.382;2023-03-14T00:34:11;94316.50;;;7.97;40.85
7768;BME280;3928;42.626;23.382;2023-03-14T00:36:38;94301.19;;;7.96;41.36
7768;BME280;3928;42.626;23.382;2023-03-14T00:39:04;94303.75;;;7.91;40.88
7768;BME280;3928;42.626;23.382;2023-03-14T00:41:32;94301.19;;;7.96;40.78
7768;BME280;3928;42.626;23.382;2023-03-14T00:43:59;94307.19;;;7.88;40.30
7768;BME280;3928;42.626;23.382;2023-03-14T00:46:26;94236.75;;;7.54;40.43
7768;BME280;3928;42.626;23.382;2023-03-14T00:48:53;94302.84;;;8.01;40.02
7768;BME280;3928;42.626;23.382;2023-03-14T00:51:19;94299.47;;;7.93;40.07
7768;BME280;3928;42.626;23.382;2023-03-14T00:53:46;94295.25;;;7.94;40.24
7768;BME280;3928;42.626;23.382;2023-03-14T00:56:13;94278.22;;;7.89;39.89
7768;BME280;3928;42.626;23.382;2023-03-14T00:58:41;94301.97;;;8.02;39.97
7768;BME280;3928;42.626;23.382;2023-03-14T01:01:10;94308.16;;;7.71;40.15
7768;BME280;3928;42.626;23.382;2023-03-14T01:03:37;94299.03;;;7.19;41.50
7768;BME280;3928;42.626;23.382;2023-03-14T01:06:12;94297.38;;;7.08;41.68
7768;BME280;3928;42.626;23.382;2023-03-14T01:08:43;94291.50;;;6.87;42.12
7768;BME280;3928;42.626;23.382;2023-03-14T01:11:12;94303.41;;;6.74;41.75
7768;BME280;3928;42.626;23.382;2023-03-14T01:13:40;94291.53;;;6.72;42.38
7768;BME280;3928;42.626;23.382;2023-03-14T01:16:09;94290.69;;;6.76;42.36
7768;BME280;3928;42.626;23.382;2023-03-14T01:18:38;94285.59;;;6.76;41.82
7768;BME280;3928;42.626;23.382;2023-03-14T01:21:10;94291.50;;;6.86;42.20
7768;BME280;3928;42.626;23.382;2023-03-14T01:23:38;94290.59;;;7.02;41.28
7768;BME280;3928;42.626;23.382;2023-03-14T01:26:08;94277.75;;;7.25;40.99
7768;BME280;3928;42.626;23.382;2023-03-14T01:28:35;94270.88;;;7.38;40.95
7768;BME280;3928;42.626;23.382;2023-03-14T01:31:03;94281.03;;;7.51;41.47
7768;BME280;3928;42.626;23.382;2023-03-14T01:33:31;94274.97;;;7.66;41.27
7768;BME280;3928;42.626;23.382;2023-03-14T01:35:58;94269.81;;;7.77;41.32
7768;BME280;3928;42.626;23.382;2023-03-14T01:38:27;94260.41;;;7.79;41.15
7768;BME280;3928;42.626;23.382;2023-03-14T01:40:54;94263.78;;;7.85;41.71
7768;BME280;3928;42.626;23.382;2023-03-14T01:43:21;94249.34;;;7.80;40.70
7768;BME280;3928;42.626;23.382;2023-03-14T01:46:16;94234.03;;;7.78;40.58
7768;BME280;3928;42.626;23.382;2023-03-14T01:48:50;94256.91;;;7.92;40.41
7768;BME280;3928;42.626;23.382;2023-03-14T01:51:22;94254.44;;;7.83;40.82
7768;BME280;3928;42.626;23.382;2023-03-14T01:53:54;94257.09;;;7.71;40.89
7768;BME280;3928;42.626;23.382;2023-03-14T01:56:22;94246.84;;;7.74;40.86
7768;BME280;3928;42.626;23.382;2023-03-14T01:58:51;94250.22;;;7.77;41.18
7768;BME280;3928;42.626;23.382;2023-03-14T02:01:20;94248.69;;;7.50;41.26
7768;BME280;3928;42.626;23.382;2023-03-14T02:03:53;94257.38;;;7.17;42.30
7768;BME280;3928;42.626;23.382;2023-03-14T02:06:23;94253.25;;;6.89;44.12
7768;BME280;3928;42.626;23.382;2023-03-14T02:08:52;94251.56;;;6.80;44.34
7768;BME280;3928;42.626;23.382;2023-03-14T02:11:20;94260.06;;;6.79;43.95
7768;BME280;3928;42.626;23.382;2023-03-14T02:13:48;94256.69;;;6.62;45.04
7768;BME280;3928;42.626;23.382;2023-03-14T02:16:15;94260.97;;;6.60;45.30
7768;BME280;3928;42.626;23.382;2023-03-14T02:18:42;94258.44;;;6.57;45.17
7768;BME280;3928;42.626;23.382;2023-03-14T02:21:17;94253.31;;;6.66;44.96
7768;BME280;3928;42.626;23.382;2023-03-14T02:23:53;94236.25;;;6.74;45.37
7768;BME280;3928;42.626;23.382;2023-03-14T02:26:28;94218.41;;;6.74;45.35
7768;BME280;3928;42.626;23.382;2023-03-14T02:28:59;94249.03;;;6.69;45.65
7768;BME280;3928;42.626;23.382;2023-03-14T02:31:26;94248.22;;;6.58;45.84
7768;BME280;3928;42.626;23.382;2023-03-14T02:33:53;94238.00;;;6.60;44.61
7768;BME280;3928;42.626;23.382;2023-03-14T02:36:22;94245.63;;;6.72;43.83
7768;BME280;3928;42.626;23.382;2023-03-14T02:38:55;94238.88;;;6.65;43.28
7768;BME280;3928;42.626;23.382;2023-03-14T02:41:22;94228.66;;;6.62;43.22
7768;BME280;3928;42.626;23.382;2023-03-14T02:43:49;94235.44;;;6.67;42.62
7768;BME280;3928;42.626;23.382;2023-03-14T02:46:18;94188.00;;;6.19;43.37
7768;BME280;3928;42.626;23.382;2023-03-14T02:48:48;94246.59;;;6.30;44.15
7768;BME280;3928;42.626;23.382;2023-03-14T02:51:17;94250.00;;;6.04;44.43
7768;BME280;3928;42.626;23.382;2023-03-14T02:53:44;94257.56;;;5.68;46.58
7768;BME280;3928;42.626;23.382;2023-03-14T02:56:11;94245.69;;;5.53;46.87
7768;BME280;3928;42.626;23.382;2023-03-14T02:58:38;94253.31;;;5.54;46.82
7768;BME280;3928;42.626;23.382;2023-03-14T03:01:05;94256.72;;;5.50;48.83
7768;BME280;3928;42.626;23.382;2023-03-14T03:03:34;94243.13;;;5.44;48.84
7768;BME280;3928;42.626;23.382;2023-03-14T03:06:01;94261.00;;;5.77;48.75
7768;BME280;3928;42.626;23.382;2023-03-14T03:08:28;94261.00;;;5.74;49.21
7768;BME280;3928;42.626;23.382;2023-03-14T03:10:57;94262.69;;;5.87;48.81
7768;BME280;3928;42.626;23.382;2023-03-14T03:13:24;94256.75;;;5.81;48.63
7768;BME280;3928;42.626;23.382;2023-03-14T03:15:51;94252.56;;;5.94;49.16
7768;BME280;3928;42.626;23.382;2023-03-14T03:18:18;94233.84;;;5.87;48.92
7768;BME280;3928;42.626;23.382;2023-03-14T03:20:46;94249.16;;;6.07;49.04
7768;BME280;3928;42.626;23.382;2023-03-14T03:23:13;94221.09;;;5.87;48.68
7768;BME280;3928;42.626;23.382;2023-03-14T03:25:40;94250.00;;;6.17;48.32
7768;BME280;3928;42.626;23.382;2023-03-14T03:28:07;94251.66;;;6.34;47.87
7768;BME280;3928;42.626;23.382;2023-03-14T03:30:37;94253.34;;;6.46;46.67
7768;BME280;3928;42.626;23.382;2023-03-14T03:33:04;94257.59;;;6.55;47.41
7768;BME280;3928;42.626;23.382;2023-03-14T03:35:31;94252.44;;;6.67;47.48
7768;BME280;3928;42.626;23.382;2023-03-14T03:37:59;94245.63;;;6.70;46.92
7768;BME280;3928;42.626;23.382;2023-03-14T03:40:26;94249.06;;;6.65;46.57
7768;BME280;3928;42.626;23.382;2023-03-14T03:42:53;94249.06;;;6.62;46.33
7768;BME280;3928;42.626;23.382;2023-03-14T03:45:20;94250.75;;;6.60;46.92
7768;BME280;3928;42.626;23.382;2023-03-14T03:47:47;94249.91;;;6.59;46.07
7768;BME280;3928;42.626;23.382;2023-03-14T03:50:13;94252.44;;;6.61;45.92
7768;BME280;3928;42.626;23.382;2023-03-14T03:52:40;94248.22;;;6.60;46.26
7768;BME280;3928;42.626;23.382;2023-03-14T03:55:09;94250.72;;;6.70;46.41
7768;BME280;3928;42.626;23.382;2023-03-14T03:57:35;94259.22;;;6.77;45.69
7768;BME280;3928;42.626;23.382;2023-03-14T04:00:03;94234.63;;;6.65;46.12
7768;BME280;3928;42.626;23.382;2023-03-14T04:02:31;94249.00;;;6.80;45.14
7768;BME280;3928;42.626;23.382;2023-03-14T04:04:57;94260.84;;;7.01;45.55
7768;BME280;3928;42.626;23.382;2023-03-14T04:07:24;94196.38;;;6.64;46.00
7768;BME280;3928;42.626;23.382;2023-03-14T04:09:51;94268.47;;;7.13;45.49
7768;BME280;3928;42.626;23.382;2023-03-14T04:12:19;94265.94;;;7.01;45.66
7768;BME280;3928;42.626;23.382;2023-03-14T04:14:45;94265.06;;;7.11;45.90
7768;BME280;3928;42.626;23.382;2023-03-14T04:17:12;94256.53;;;7.17;46.17
7768;BME280;3928;42.626;23.382;2023-03-14T04:19:39;94247.22;;;7.03;46.20
7768;BME280;3928;42.626;23.382;2023-03-14T04:22:07;94249.78;;;7.03;46.20
7768;BME280;3928;42.626;23.382;2023-03-14T04:24:34;94242.13;;;7.05;46.38
7768;BME280;3928;42.626;23.382;2023-03-14T04:27:01;94230.22;;;6.98;46.54
7768;BME280;3928;42.626;23.382;2023-03-14T04:29:29;94240.47;;;6.90;46.04
7768;BME280;3928;42.626;23.382;2023-03-14T04:31:55;94232.00;;;6.88;46.56
7768;BME280;3928;42.626;23.382;2023-03-14T04:34:22;94226.09;;;6.69;46.72
7768;BME280;3928;42.626;23.382;2023-03-14T04:36:49;94221.91;;;6.45;46.67
7768;BME280;3928;42.626;23.382;2023-03-14T04:39:16;94228.72;;;6.40;46.74
7768;BME280;3928;42.626;23.382;2023-03-14T04:41:44;94228.72;;;6.37;46.61
7768;BME280;3928;42.626;23.382;2023-03-14T04:44:10;94215.97;;;6.45;46.84
7768;BME280;3928;42.626;23.382;2023-03-14T04:46:39;94211.69;;;6.58;46.63
7768;BME280;3928;42.626;23.382;2023-03-14T04:49:05;94210.81;;;6.63;46.82
7768;BME280;3928;42.626;23.382;2023-03-14T04:51:32;94220.13;;;6.70;44.85
7768;BME280;3928;42.626;23.382;2023-03-14T04:53:59;94220.13;;;6.75;45.59
7768;BME280;3928;42.626;23.382;2023-03-14T04:56:26;94211.56;;;6.85;45.53
7768;BME280;3928;42.626;23.382;2023-03-14T04:58:53;94213.25;;;6.91;45.31
7768;BME280;3928;42.626;23.382;2023-03-14T05:01:20;94206.50;;;6.79;45.47
7768;BME280;3928;42.626;23.382;2023-03-14T05:03:48;94198.03;;;6.77;45.37
7768;BME280;3928;42.626;23.382;2023-03-14T05:06:14;94194.59;;;6.81;45.85
7768;BME280;3928;42.626;23.382;2023-03-14T05:08:41;94196.28;;;6.88;46.60
7768;BME280;3928;42.626;23.382;2023-03-14T05:11:10;94206.47;;;6.84;45.76
7768;BME280;3928;42.626;23.382;2023-03-14T05:13:36;94209.97;;;6.57;45.79
7768;BME280;3928;42.626;23.382;2023-03-14T05:16:04;94018.38;;;5.26;45.98
7768;BME280;3928;42.626;23.382;2023-03-14T05:18:32;94210.88;;;6.34;46.69
7768;BME280;3928;42.626;23.382;2023-03-14T05:21:00;94206.69;;;6.12;47.07
7768;BME280;3928;42.626;23.382;2023-03-14T05:23:27;94209.22;;;5.80;47.53
7768;BME280;3928;42.626;23.382;2023-03-14T05:25:54;94207.53;;;5.70;48.25
7768;BME280;3928;42.626;23.382;2023-03-14T05:28:21;94210.06;;;5.53;49.62
7768;BME280;3928;42.626;23.382;2023-03-14T05:30:48;94207.47;;;5.28;51.38
7768;BME280;3928;42.626;23.382;2023-03-14T05:33:15;94212.50;;;5.07;53.66
7768;BME280;3928;42.626;23.382;2023-03-14T05:35:42;94191.28;;;4.91;54.32
7768;BME280;3928;42.626;23.382;2023-03-14T05:38:10;94196.44;;;5.11;55.66
7768;BME280;3928;42.626;23.382;2023-03-14T05:40:37;94193.91;;;5.23;54.88
7768;BME280;3928;42.626;23.382;2023-03-14T05:43:04;94144.69;;;5.05;54.58
7768;BME280;3928;42.626;23.382;2023-03-14T05:45:33;94171.88;;;5.51;54.28
7768;BME280;3928;42.626;23.382;2023-03-14T05:48:00;94182.91;;;5.85;54.28
7768;BME280;3928;42.626;23.382;2023-03-14T05:50:27;94199.91;;;6.17;54.25
7768;BME280;3928;42.626;23.382;2023-03-14T05:52:53;94204.09;;;6.32;52.98
7768;BME280;3928;42.626;23.382;2023-03-14T05:55:22;94195.63;;;6.28;52.95
7768;BME280;3928;42.626;23.382;2023-03-14T05:57:49;94193.03;;;6.36;52.84
7768;BME280;3928;42.626;23.382;2023-03-14T06:00:16;94208.34;;;6.24;54.37
7768;BME280;3928;42.626;23.382;2023-03-14T06:02:44;94201.56;;;6.33;52.43
7768;BME280;3928;42.626;23.382;2023-03-14T06:05:11;94199.81;;;6.38;52.54
7768;BME280;3928;42.626;23.382;2023-03-14T06:07:38;94194.72;;;6.48;52.83
7768;BME280;3928;42.626;23.382;2023-03-14T06:10:05;94194.59;;;6.81;51.93
7768;BME280;3928;42.626;23.382;2023-03-14T06:12:34;94196.28;;;6.88;51.47
7768;BME280;3928;42.626;23.382;2023-03-14T06:15:00;94195.44;;;6.83;50.78
7768;BME280;3928;42.626;23.382;2023-03-14T06:17:27;94192.84;;;6.92;51.53
7768;BME280;3928;42.626;23.382;2023-03-14T06:19:54;94192.81;;;6.95;50.82
7768;BME280;3928;42.626;23.382;2023-03-14T06:22:21;94193.59;;;7.14;49.99
7768;BME280;3928;42.626;23.382;2023-03-14T06:24:48;94193.69;;;6.94;50.44
7768;BME280;3928;42.626;23.382;2023-03-14T06:27:14;94194.53;;;6.99;50.27
7768;BME280;3928;42.626;23.382;2023-03-14T06:29:42;94201.28;;;7.07;49.88
7768;BME280;3928;42.626;23.382;2023-03-14T06:32:09;94207.16;;;7.19;50.00
7768;BME280;3928;42.626;23.382;2023-03-14T06:34:36;94201.06;;;7.43;48.91
7768;BME280;3928;42.626;23.382;2023-03-14T06:37:04;94202.72;;;7.50;48.30
7768;BME280;3928;42.626;23.382;2023-03-14T06:39:31;94202.69;;;7.56;48.36
7768;BME280;3928;42.626;23.382;2023-03-14T06:41:57;94201.66;;;7.83;47.75
7768;BME280;3928;42.626;23.382;2023-03-14T06:44:24;94197.19;;;8.07;46.67
7768;BME280;3928;42.626;23.382;2023-03-14T06:46:53;94180.97;;;8.11;45.27
7768;BME280;3928;42.626;23.382;2023-03-14T06:49:20;94186.56;;;8.48;44.34
7768;BME280;3928;42.626;23.382;2023-03-14T06:51:46;94188.06;;;8.69;42.79
7768;BME280;3928;42.626;23.382;2023-03-14T06:54:13;94174.19;;;8.87;42.47
7768;BME280;3928;42.626;23.382;2023-03-14T06:56:41;94182.53;;;9.04;42.77
7768;BME280;3928;42.626;23.382;2023-03-14T06:59:08;94176.19;;;9.29;41.58
7768;BME280;3928;42.626;23.382;2023-03-14T07:01:35;94174.84;;;9.64;41.43
7768;BME280;3928;42.626;23.382;2023-03-14T07:04:03;94178.63;;;9.94;39.61
7768;BME280;3928;42.626;23.382;2023-03-14T07:06:30;94178.69;;;9.91;39.05
7768;BME280;3928;42.626;23.382;2023-03-14T07:08:57;94163.53;;;10.28;39.74
7768;BME280;3928;42.626;23.382;2023-03-14T07:11:24;94145.00;;;10.60;39.75
7768;BME280;3928;42.626;23.382;2023-03-14T07:13:51;94145.66;;;11.11;38.69
7768;BME280;3928;42.626;23.382;2023-03-14T07:16:17;94146.59;;;11.46;37.98
7768;BME280;3928;42.626;23.382;2023-03-14T07:18:45;94140.84;;;11.74;37.32
7768;BME280;3928;42.626;23.382;2023-03-14T07:21:13;94145.13;;;12.10;36.75
7768;BME280;3928;42.626;23.382;2023-03-14T07:23:40;94151.97;;;12.44;35.49
7768;BME280;3928;42.626;23.382;2023-03-14T07:26:07;94153.16;;;12.63;34.95
7768;BME280;3928;42.626;23.382;2023-03-14T07:28:33;94149.47;;;12.73;34.74
7768;BME280;3928;42.626;23.382;2023-03-14T07:31:00;94157.59;;;12.89;34.31
7768;BME280;3928;42.626;23.382;2023-03-14T07:33:27;94150.91;;;13.13;34.21
7768;BME280;3928;42.626;23.382;2023-03-14T07:35:53;94146.31;;;13.24;33.94
7768;BME280;3928;42.626;23.382;2023-03-14T07:38:22;94104.16;;;13.27;33.62
7768;BME280;3928;42.626;23.382;2023-03-14T07:40:48;94151.63;;;13.75;33.10
7768;BME280;3928;42.626;23.382;2023-03-14T07:43:15;94140.09;;;13.87;33.10
7768;BME280;3928;42.626;23.382;2023-03-14T07:45:45;94139.69;;;13.99;32.72
7768;BME280;3928;42.626;23.382;2023-03-14T07:48:12;94130.19;;;14.26;32.60
7768;BME280;3928;42.626;23.382;2023-03-14T07:50:39;94125.91;;;14.52;31.68
7768;BME280;3928;42.626;23.382;2023-03-14T07:53:05;94115.66;;;14.74;31.71
7768;BME280;3928;42.626;23.382;2023-03-14T07:55:33;94125.56;;;14.86;30.97
7768;BME280;3928;42.626;23.382;2023-03-14T07:58:00;94121.88;;;14.93;31.13
7768;BME280;3928;42.626;23.382;2023-03-14T08:00:27;94117.94;;;15.06;31.16
7768;BME280;3928;42.626;23.382;2023-03-14T08:02:54;94117.97;;;15.28;30.92
7768;BME280;3928;42.626;23.382;2023-03-14T08:05:21;94127.88;;;15.40;29.98
7768;BME280;3928;42.626;23.382;2023-03-14T08:07:48;94126.19;;;15.61;29.87
7768;BME280;3928;42.626;23.382;2023-03-14T08:10:15;94122.94;;;15.56;30.16
7768;BME280;3928;42.626;23.382;2023-03-14T08:12:48;94120.91;;;15.86;30.13
7768;BME280;3928;42.626;23.382;2023-03-14T08:15:15;94075.28;;;15.84;29.96
7768;BME280;3928;42.626;23.382;2023-03-14T08:17:42;94123.00;;;16.41;29.60
7768;BME280;3928;42.626;23.382;2023-03-14T08:20:10;94120.41;;;16.61;28.55
7768;BME280;3928;42.626;23.382;2023-03-14T08:22:38;94116.84;;;16.84;28.52
7768;BME280;3928;42.626;23.382;2023-03-14T08:25:06;94125.16;;;17.11;27.97
7768;BME280;3928;42.626;23.382;2023-03-14T08:27:32;94118.50;;;17.24;27.69
7768;BME280;3928;42.626;23.382;2023-03-14T08:30:01;94118.03;;;17.53;27.28
7768;BME280;3928;42.626;23.382;2023-03-14T08:32:28;94118.09;;;17.71;27.13
7768;BME280;3928;42.626;23.382;2023-03-14T08:34:55;94119.09;;;17.86;27.25
7768;BME280;3928;42.626;23.382;2023-03-14T08:37:22;94104.53;;;17.83;27.27
7768;BME280;3928;42.626;23.382;2023-03-14T08:39:50;94110.53;;;18.02;27.42
7768;BME280;3928;42.626;23.382;2023-03-14T08:42:17;94103.06;;;18.14;27.48
7768;BME280;3928;42.626;23.382;2023-03-14T08:44:43;94094.25;;;18.33;26.78
7768;BME280;3928;42.626;23.382;2023-03-14T08:47:12;94094.88;;;18.38;26.55
7768;BME280;3928;42.626;23.382;2023-03-14T08:49:39;94095.69;;;18.56;26.33
7768;BME280;3928;42.626;23.382;2023-03-14T08:52:06;94086.91;;;18.76;25.70
7768;BME280;3928;42.626;23.382;2023-03-14T08:54:32;94082.03;;;19.03;25.44
7768;BME280;3928;42.626;23.382;2023-03-14T08:56:59;94076.63;;;19.23;25.47
7768;BME280;3928;42.626;23.382;2023-03-14T08:59:26;94074.00;;;19.23;25.13
7768;BME280;3928;42.626;23.382;2023-03-14T09:01:53;94068.88;;;19.38;24.92
7768;BME280;3928;42.626;23.382;2023-03-14T09:04:22;94068.72;;;19.41;25.35
7768;BME280;3928;42.626;23.382;2023-03-14T09:06:48;94059.66;;;19.48;25.18
7768;BME280;3928;42.626;23.382;2023-03-14T09:09:15;94060.75;;;19.75;24.73
7768;BME280;3928;42.626;23.382;2023-03-14T09:11:42;94051.88;;;19.79;24.88
7768;BME280;3928;42.626;23.382;2023-03-14T09:14:09;94055.50;;;20.07;24.35
7768;BME280;3928;42.626;23.382;2023-03-14T09:16:36;94055.66;;;20.34;23.83
7768;BME280;3928;42.626;23.382;2023-03-14T09:19:03;94041.97;;;20.60;23.67
7768;BME280;3928;42.626;23.382;2023-03-14T09:21:31;94039.66;;;20.84;23.37
7768;BME280;3928;42.626;23.382;2023-03-14T09:23:58;94029.03;;;20.87;23.35
7768;BME280;3928;42.626;23.382;2023-03-14T09:26:24;94020.38;;;21.01;22.70
7768;BME280;3928;42.626;23.382;2023-03-14T09:28:51;94006.66;;;21.12;23.01
7768;BME280;3928;42.626;23.382;2023-03-14T09:31:18;94003.84;;;21.29;22.03
7768;BME280;3928;42.626;23.382;2023-03-14T09:33:45;94000.75;;;21.37;22.42
7768;BME280;3928;42.626;23.382;2023-03-14T09:36:12;94002.53;;;21.36;22.93
7768;BME280;3928;42.626;23.382;2023-03-14T09:38:40;93999.28;;;21.59;22.22
7768;BME280;3928;42.626;23.382;2023-03-14T09:41:14;93996.75;;;21.85;21.92
7768;BME280;3928;42.626;23.382;2023-03-14T09:43:43;93996.16;;;21.94;21.57
7768;BME280;3928;42.626;23.382;2023-03-14T09:46:12;93980.84;;;22.02;21.71
7768;BME280;3928;42.626;23.382;2023-03-14T09:48:40;93975.13;;;22.23;21.44
7768;BME280;3928;42.626;23.382;2023-03-14T09:51:12;93974.50;;;22.44;21.36
7768;BME280;3928;42.626;23.382;2023-03-14T09:53:44;93956.31;;;22.56;21.58
7768;BME280;3928;42.626;23.382;2023-03-14T09:56:14;93958.19;;;22.66;21.94
7768;BME280;3928;42.626;23.382;2023-03-14T09:58:47;93960.69;;;22.93;21.54
7768;BME280;3928;42.626;23.382;2023-03-14T10:01:20;93959.59;;;23.09;21.05
7768;BME280;3928;42.626;23.382;2023-03-14T10:03:51;93955.03;;;22.99;21.41
7768;BME280;3928;42.626;23.382;2023-03-14T10:06:21;93948.38;;;23.19;21.02
7768;BME280;3928;42.626;23.382;2023-03-14T10:08:51;93919.03;;;23.27;21.09
7768;BME280;3928;42.626;23.382;2023-03-14T10:11:19;93942.44;;;23.41;21.48
7768;BME280;3928;42.626;23.382;2023-03-14T10:14:03;93942.38;;;23.30;20.98
7768;BME280;3928;42.626;23.382;2023-03-14T10:16:31;93939.72;;;23.06;21.95
7768;BME280;3928;42.626;23.382;2023-03-14T10:19:02;93931.38;;;23.01;22.01
7768;BME280;3928;42.626;23.382;2023-03-14T10:21:31;93929.38;;;23.28;21.39
7768;BME280;3928;42.626;23.382;2023-03-14T10:24:15;93927.38;;;23.56;21.76
7768;BME280;3928;42.626;23.382;2023-03-14T10:26:43;93919.09;;;23.86;20.78
7768;BME280;3928;42.626;23.382;2023-03-14T10:29:13;93862.16;;;23.88;21.26
7768;BME280;3928;42.626;23.382;2023-03-14T10:31:51;93898.97;;;24.44;20.71
7768;BME280;3928;42.626;23.382;2023-03-14T10:34:23;93898.72;;;24.47;20.18
7768;BME280;3928;42.626;23.382;2023-03-14T10:36:54;93895.00;;;24.16;21.27
7768;BME280;3928;42.626;23.382;2023-03-14T10:39:30;93877.28;;;24.31;20.96
7768;BME280;3928;42.626;23.382;2023-03-14T10:42:05;93866.53;;;24.56;21.10
7768;BME280;3928;42.626;23.382;2023-03-14T10:44:34;93862.94;;;24.79;20.43
7768;BME280;3928;42.626;23.382;2023-03-14T10:47:03;93857.00;;;24.77;20.43
7768;BME280;3928;42.626;23.382;2023-03-14T10:49:32;93845.19;;;24.27;20.33
7768;BME280;3928;42.626;23.382;2023-03-14T10:52:15;93848.72;;;24.15;21.39
7768;BME280;3928;42.626;23.382;2023-03-14T10:54:46;93843.94;;;23.98;21.21
7768;BME280;3928;42.626;23.382;2023-03-14T10:57:14;93833.00;;;24.04;21.16
7768;BME280;3928;42.626;23.382;2023-03-14T10:59:42;93825.88;;;24.17;21.39
7768;BME280;3928;42.626;23.382;2023-03-14T11:02:20;93807.13;;;24.10;22.54
7768;BME280;3928;42.626;23.382;2023-03-14T11:04:57;93810.69;;;23.87;21.99
7768;BME280;3928;42.626;23.382;2023-03-14T11:07:33;93805.09;;;24.03;22.55
7768;BME280;3928;42.626;23.382;2023-03-14T11:10:11;93805.59;;;23.97;22.03
7768;BME280;3928;42.626;23.382;2023-03-14T11:12:56;93797.63;;;24.32;21.03
7768;BME280;3928;42.626;23.382;2023-03-14T11:15:31;93789.03;;;24.63;20.44
7768;BME280;3928;42.626;23.382;2023-03-14T11:18:16;93775.72;;;24.87;20.38
7768;BME280;3928;42.626;23.382;2023-03-14T11:20:47;93762.34;;;25.01;20.06
7768;BME280;3928;42.626;23.382;2023-03-14T11:23:21;93773.16;;;25.40;19.76
7768;BME280;3928;42.626;23.382;2023-03-14T11:25:55;93766.13;;;25.61;19.70
7768;BME280;3928;42.626;23.382;2023-03-14T11:28:29;93750.22;;;25.84;19.58
7768;BME280;3928;42.626;23.382;2023-03-14T11:31:05;93747.69;;;26.03;18.89
7768;BME280;3928;42.626;23.382;2023-03-14T11:33:39;93719.78;;;25.60;19.51
7768;BME280;3928;42.626;23.382;2023-03-14T11:36:12;93726.38;;;25.76;19.87
7768;BME280;3928;42.626;23.382;2023-03-14T11:38:48;93725.94;;;26.01;18.98
7768;BME280;3928;42.626;23.382;2023-03-14T11:41:20;93725.16;;;26.10;19.02
7768;BME280;3928;42.626;23.382;2023-03-14T11:43:53;93720.13;;;25.98;19.30
7768;BME280;3928;42.626;23.382;2023-03-14T11:46:25;93714.69;;;25.69;19.76
7768;BME280;3928;42.626;23.382;2023-03-14T11:48:59;93712.31;;;25.65;19.56
7768;BME280;3928;42.626;23.382;2023-03-14T11:51:29;93708.56;;;25.58;19.59
7768;BME280;3928;42.626;23.382;2023-03-14T11:54:04;93699.38;;;25.94;19.38
7768;BME280;3928;42.626;23.382;2023-03-14T11:56:37;93688.88;;;25.53;19.34
7768;BME280;3928;42.626;23.382;2023-03-14T11:59:12;93690.13;;;25.49;19.84
7768;BME280;3928;42.626;23.382;2023-03-14T12:01:51;93679.16;;;25.95;19.40
7768;BME280;3928;42.626;23.382;2023-03-14T12:04:35;93681.97;;;26.63;18.53
7768;BME280;3928;42.626;23.382;2023-03-14T12:07:14;93676.59;;;27.22;18.20
7768;BME280;3928;42.626;23.382;2023-03-14T12:09:44;93663.06;;;27.64;17.51
7768;BME280;3928;42.626;23.382;2023-03-14T12:12:17;93661.47;;;27.90;17.52
7768;BME280;3928;42.626;23.382;2023-03-14T12:14:46;93655.09;;;28.20;17.27
7768;BME280;3928;42.626;23.382;2023-03-14T12:17:20;93654.25;;;28.47;17.08
7768;BME280;3928;42.626;23.382;2023-03-14T12:19:47;93640.16;;;28.57;16.94
7768;BME280;3928;42.626;23.382;2023-03-14T12:22:26;93635.19;;;28.53;16.48
7768;BME280;3928;42.626;23.382;2023-03-14T12:24:57;93627.63;;;28.41;16.83
7768;BME280;3928;42.626;23.382;2023-03-14T12:27:42;93627.50;;;28.42;17.57
7768;BME280;3928;42.626;23.382;2023-03-14T12:30:25;93617.59;;;28.44;17.68
7768;BME280;3928;42.626;23.382;2023-03-14T12:33:29;93610.75;;;28.69;16.99
7768;BME280;3928;42.626;23.382;2023-03-14T12:36:00;93614.22;;;29.05;16.26
7768;BME280;3928;42.626;23.382;2023-03-14T12:41:21;93618.03;;;29.29;16.59
7768;BME280;3928;42.626;23.382;2023-03-14T12:43:51;93606.56;;;29.46;16.12
7768;BME280;3928;42.626;23.382;2023-03-14T12:46:24;93612.38;;;29.76;15.28
7768;BME280;3928;42.626;23.382;2023-03-14T12:48:55;93609.03;;;29.99;15.43
7768;BME280;3928;42.626;23.382;2023-03-14T12:51:30;93568.09;;;29.78;15.22
7768;BME280;3928;42.626;23.382;2023-03-14T12:57:14;93584.28;;;29.75;15.41
7768;BME280;3928;42.626;23.382;2023-03-14T12:59:50;93579.88;;;29.57;15.70
7768;BME280;3928;42.626;23.382;2023-03-14T13:02:23;93581.75;;;29.39;16.05
7768;BME280;3928;42.626;23.382;2023-03-14T13:04:52;93570.38;;;29.21;16.07
7768;BME280;3928;42.626;23.382;2023-03-14T13:07:31;93562.13;;;29.24;16.72
7768;BME280;3928;42.626;23.382;2023-03-14T13:10:18;93570.84;;;29.42;15.97
7768;BME280;3928;42.626;23.382;2023-03-14T13:12:49;93551.03;;;29.46;15.65
7768;BME280;3928;42.626;23.382;2023-03-14T13:15:24;93558.44;;;29.60;15.69
7768;BME280;3928;42.626;23.382;2023-03-14T13:17:55;93550.00;;;29.65;15.47
7768;BME280;3928;42.626;23.382;2023-03-14T13:20:28;93532.00;;;29.60;15.13
7768;BME280;3928;42.626;23.382;2023-03-14T13:22:57;93547.63;;;29.88;15.09
7768;BME280;3928;42.626;23.382;2023-03-14T13:25:23;93533.59;;;30.04;14.67
7768;BME280;3928;42.626;23.382;2023-03-14T13:27:52;93536.50;;;30.26;14.83
7768;BME280;3928;42.626;23.382;2023-03-14T13:30:24;93519.31;;;30.22;14.41
7768;BME280;3928;42.626;23.382;2023-03-14T13:32:53;93521.66;;;30.34;15.03
7768;BME280;3928;42.626;23.382;2023-03-14T13:35:25;93500.13;;;30.37;14.58